logo
Rechercher aéroport 
image banner adimage banner adimage banner ad
image banner ad

OITL - Ardabil / Secondary International Aerodrome

Situé à Ardabil, Iran, Islamic Republic of

ICAO - OITL, IATA - ADU

Données fournies par Airmate  

Information générale

Coordonnées: N38°19'36" E48°25'27"
Élévation : 4319 feet MSL.
 
Évalué:
Voir évaluations:
[VIEW]
Voir autres Aéroports à Ardabil Province

Données opérationnelles

Special qualification required
Heure actuelle UTC:
Heure actuelle locale:
Météo
METAR: OITL 222300Z 26004KT 9999 VCFG BKN007 BKN025 FEW035CB 09/09 Q1017
TAF: TAF OITL 222300Z 2300/2309 08008KT 0500 FG OVC005 BECMG 2304/2306 3000 BR BKN020 BECMG 2306/2308 8000 FEW030
Voir NOTAMs / SUP AIP / TFR affectant cet aéroport [VIEW]
Fréquences de communication: [VIEW]

Pistes:

Identifiant RWYQFULongueur (ft)Largeur (ft)SurfaceLDA (ft)
0775°8202148UNK
25255°8202148UNK
15150°10820148PEM
33330°10820148PEM

Coordonnées de l'aéroport

Adresse: Ardabil Iran, Islamic Republic of

Vue satellite de OITL